Bismarck, Arkansas
Current Conditions -  °F | °C
As of 11:53 PM on Monday 26 Jan 2015 (Local Time) from KHOT Reporting Station
Clear Clear  
Wind Chill: 44°   Ceiling: Unl
Heat Index: 44°   Visibility: 10mi
Dew Point: 36°   Wind: 3mph
Humidity: 73%   Direction: 310°NW
Pressure: 30.02"   Gusts: NA
Location:  34.32°N, 93.17°W
Report Text: KHOT 270553Z AUTO 31003KT 10SM CLR 07/02 A3002 RMK AO2 SLP166 T00670022 10144 20067 401780011 50004
Loading
Personal Weather Stations






























Interactive Weather Map New forecast layout! Learn more

10-Day Weather Forecast

Advertisements
Track Severe Weather on mobile